Current Weather

Wood County - Collins Fld

Mineola/Quitman, Texas (KJDD)

Report from: Friday, February 23, 2024 7:35 PM UTC
Current time: Friday, February 23, 2024 8:06 PM UTC

Nearby weather – Weather history – Daily summaries
Weather forecast

Temperature21.0°C (69.8°F)
Dew point0.0°C (32.0°F)
Winds 14 kts (7.2 m/s, 16.1 mph) Northwest (310°)
Visibility10 mi. (16.1 km)
Clouds Sky clear
Altimeter30.06 in.Hg (1018 mB)
Relative humidity25 %
Density altitude639 ft. (195 m)
Remarks Fully automated report
Automated weather observing station with precipitation discriminator
Flight conditions Visual Meteorological Conditions
Raw dataKJDD 231935Z AUTO 31014KT 10SM CLR 21/00 A3006 RMK AO2
An error has occurred. This application may no longer respond until reloaded. Reload 🗙